Byron, Minnesota
Current Conditions -  °F | °C
As of 8:13 AM on Saturday 20 Dec 2014 (Local Time) from K9MN Reporting Station
Overcast Overcast  
Wind Chill: 23°   Ceiling: 500
Heat Index: 28°   Visibility: 2.5mi
Dew Point: 27°   Wind: 5mph
Humidity: 95%   Direction: 160°SSE
Pressure: 30.17"   Gusts: NA
Location:  44.03°N, 92.65°W
Report Text: K9MN 201413Z AUTO 16004KT 2 1/2SM OVC005 M02/M03 A3017 RMK AO1 T10221029
Loading
Personal Weather Stations






























Interactive Weather Map New forecast layout! Learn more

10-Day Weather Forecast

Advertisements
Track Severe Weather on mobile